Time;durP1;ratioP1;P1;durP2;ratioP2;P2;SDS_P1;SDS_P2;PMS_P1;PMS_P2;Temp;Humidity;BMP_temperature;BMP_pressure;BME280_temperature;BME280_humidity;BME280_pressure;Samples;Min_cycle;Max_cycle;Signal;HPM_P1;HPM_P2
2021/10/06 00:01:01;;;;;;;25.90;12.25;;;;;;;;;;5031448;28;20391;-74
2021/10/06 00:03:26;;;;;;;20.73;11.13;;;;;;;;;;5031846;28;20029;-74
2021/10/06 00:05:52;;;;;;;18.35;9.45;;;;;;;;;;5029820;28;20021;-74
2021/10/06 00:08:18;;;;;;;19.75;10.07;;;;;;;;;;5031182;28;20090;-73
2021/10/06 00:10:44;;;;;;;22.17;12.95;;;;;;;;;;5029914;28;20029;-73
2021/10/06 00:13:10;;;;;;;17.90;9.60;;;;;;;;;;5031193;28;20167;-74
2021/10/06 00:15:36;;;;;;;18.58;10.30;;;;;;;;;;5031142;28;20026;-74
2021/10/06 00:18:02;;;;;;;28.05;10.85;;;;;;;;;;5030730;28;20385;-76
2021/10/06 00:20:27;;;;;;;22.83;10.95;;;;;;;;;;5031069;28;20029;-76
2021/10/06 00:22:53;;;;;;;21.27;10.48;;;;;;;;;;5029259;28;20040;-74
2021/10/06 00:25:18;;;;;;;24.42;11.18;;;;;;;;;;5029471;28;20030;-75
2021/10/06 00:27:44;;;;;;;17.90;10.30;;;;;;;;;;5029729;28;20075;-75
2021/10/06 00:30:10;;;;;;;22.27;10.73;;;;;;;;;;5029318;28;20033;-74
2021/10/06 00:32:35;;;;;;;16.80;10.23;;;;;;;;;;5030714;28;20021;-73
2021/10/06 00:35:01;;;;;;;23.15;11.40;;;;;;;;;;5030556;28;20061;-74
2021/10/06 00:37:26;;;;;;;24.17;12.18;;;;;;;;;;5029562;28;20550;-73
2021/10/06 00:39:53;;;;;;;24.73;12.48;;;;;;;;;;5031021;28;20055;-72
2021/10/06 00:42:18;;;;;;;18.27;9.30;;;;;;;;;;5030851;28;20037;-72
2021/10/06 00:44:44;;;;;;;20.35;10.82;;;;;;;;;;5031503;28;20041;-71
2021/10/06 00:47:12;;;;;;;21.63;11.32;;;;;;;;;;5031284;28;20037;-72
2021/10/06 00:49:38;;;;;;;16.58;10.73;;;;;;;;;;5029422;28;20056;-73
2021/10/06 00:52:05;;;;;;;18.88;10.63;;;;;;;;;;5028913;28;20025;-71
2021/10/06 00:54:30;;;;;;;17.33;9.60;;;;;;;;;;5029591;28;20029;-73
2021/10/06 00:56:55;;;;;;;18.33;10.38;;;;;;;;;;5030482;28;20037;-72
2021/10/06 00:59:21;;;;;;;22.60;9.73;;;;;;;;;;5030577;28;20086;-72
2021/10/06 01:01:47;;;;;;;15.73;9.77;;;;;;;;;;5030391;28;20087;-72
2021/10/06 01:04:12;;;;;;;19.48;9.98;;;;;;;;;;5028964;28;20065;-73
2021/10/06 01:06:38;;;;;;;16.42;9.23;;;;;;;;;;5029008;28;20025;-73
2021/10/06 01:09:04;;;;;;;16.42;9.40;;;;;;;;;;5030324;28;20037;-73
2021/10/06 01:11:29;;;;;;;18.05;9.27;;;;;;;;;;5028006;28;20504;-72
2021/10/06 01:13:56;;;;;;;16.15;8.93;;;;;;;;;;5030054;28;20025;-73
2021/10/06 01:16:22;;;;;;;19.23;10.23;;;;;;;;;;5030244;28;20025;-73
2021/10/06 01:18:49;;;;;;;19.13;9.75;;;;;;;;;;5028744;28;20025;-73
2021/10/06 01:21:17;;;;;;;15.15;8.27;;;;;;;;;;5030085;28;20083;-73
2021/10/06 01:23:47;;;;;;;20.30;10.20;;;;;;;;;;5029208;28;20032;-73
2021/10/06 01:26:18;;;;;;;17.75;8.88;;;;;;;;;;5030261;28;20560;-72
2021/10/06 01:28:49;;;;;;;16.83;9.48;;;;;;;;;;5028782;28;20036;-73
2021/10/06 01:31:15;;;;;;;20.75;10.02;;;;;;;;;;5029778;28;20144;-72
2021/10/06 01:33:41;;;;;;;15.95;9.75;;;;;;;;;;5028072;28;20516;-73
2021/10/06 01:36:07;;;;;;;18.88;9.07;;;;;;;;;;5028107;28;20045;-73
2021/10/06 01:38:33;;;;;;;18.60;9.50;;;;;;;;;;5030033;28;20029;-73
2021/10/06 01:40:59;;;;;;;20.88;10.05;;;;;;;;;;5029768;28;20539;-72
2021/10/06 01:43:24;;;;;;;20.65;9.90;;;;;;;;;;5029878;28;20032;-73
2021/10/06 01:45:50;;;;;;;17.00;9.00;;;;;;;;;;5029797;28;20385;-73
2021/10/06 01:48:15;;;;;;;18.35;9.65;;;;;;;;;;5028672;28;20048;-72
2021/10/06 01:50:43;;;;;;;17.63;9.55;;;;;;;;;;5029811;28;20032;-72
2021/10/06 01:53:11;;;;;;;14.70;8.82;;;;;;;;;;5029568;28;20025;-73
2021/10/06 01:55:37;;;;;;;14.68;9.25;;;;;;;;;;5029830;28;20117;-74
2021/10/06 01:58:07;;;;;;;21.85;9.45;;;;;;;;;;5029522;28;20060;-72
2021/10/06 02:00:34;;;;;;;14.55;8.75;;;;;;;;;;5012373;28;20390;-73
2021/10/06 02:02:59;;;;;;;18.10;8.93;;;;;;;;;;5029219;28;20033;-73
2021/10/06 02:05:25;;;;;;;17.02;8.88;;;;;;;;;;5029653;28;20101;-73
2021/10/06 02:07:51;;;;;;;18.13;9.45;;;;;;;;;;5027992;28;20366;-74
2021/10/06 02:10:17;;;;;;;15.52;8.40;;;;;;;;;;5028156;28;20036;-73
2021/10/06 02:12:43;;;;;;;12.98;8.23;;;;;;;;;;5028246;28;20053;-73
2021/10/06 02:15:09;;;;;;;15.70;8.20;;;;;;;;;;5029475;28;20199;-71
2021/10/06 02:17:34;;;;;;;14.95;9.40;;;;;;;;;;5029563;28;20500;-72
2021/10/06 02:20:00;;;;;;;14.13;8.82;;;;;;;;;;5029409;28;20033;-72
2021/10/06 02:22:27;;;;;;;15.15;9.05;;;;;;;;;;5030289;28;20022;-72
2021/10/06 02:24:52;;;;;;;23.73;9.15;;;;;;;;;;5033511;28;20033;-72
2021/10/06 02:27:18;;;;;;;14.52;8.68;;;;;;;;;;5033494;28;20400;-72
2021/10/06 02:29:44;;;;;;;14.55;8.73;;;;;;;;;;5031898;28;20112;-75
2021/10/06 02:32:09;;;;;;;16.63;9.15;;;;;;;;;;5032459;28;20465;-75
2021/10/06 02:34:35;;;;;;;17.55;9.68;;;;;;;;;;5031578;28;20087;-74
2021/10/06 02:37:00;;;;;;;17.80;10.20;;;;;;;;;;5031188;28;20129;-76
2021/10/06 02:39:26;;;;;;;17.58;9.90;;;;;;;;;;5032957;28;20025;-76
2021/10/06 02:41:52;;;;;;;18.33;10.63;;;;;;;;;;5032615;28;20431;-76
2021/10/06 02:44:17;;;;;;;20.10;9.82;;;;;;;;;;5032835;28;20560;-76
2021/10/06 02:46:43;;;;;;;21.60;10.35;;;;;;;;;;5031501;28;20037;-75
2021/10/06 02:49:08;;;;;;;18.27;10.00;;;;;;;;;;5033033;28;20087;-75
2021/10/06 02:51:34;;;;;;;16.00;9.75;;;;;;;;;;5032999;28;20076;-76
2021/10/06 02:54:00;;;;;;;21.95;10.15;;;;;;;;;;5031143;28;20132;-76
2021/10/06 02:56:25;;;;;;;17.98;9.27;;;;;;;;;;5032505;28;20113;-75
2021/10/06 02:58:51;;;;;;;24.42;11.27;;;;;;;;;;5031346;28;20452;-76
2021/10/06 03:01:16;;;;;;;19.48;10.23;;;;;;;;;;5032440;28;20076;-76
2021/10/06 03:03:42;;;;;;;17.02;10.15;;;;;;;;;;5033175;28;20061;-76
2021/10/06 03:06:07;;;;;;;20.50;10.02;;;;;;;;;;5032691;28;20465;-74
2021/10/06 03:08:33;;;;;;;18.02;9.02;;;;;;;;;;5032746;28;20034;-75
2021/10/06 03:10:59;;;;;;;18.55;9.15;;;;;;;;;;5032242;28;20033;-76
2021/10/06 03:13:25;;;;;;;26.35;10.50;;;;;;;;;;5032089;28;20057;-75
2021/10/06 03:15:50;;;;;;;20.80;10.25;;;;;;;;;;5032410;28;20053;-76
2021/10/06 03:18:16;;;;;;;19.20;10.55;;;;;;;;;;5030647;28;20449;-75
2021/10/06 03:20:41;;;;;;;19.73;8.82;;;;;;;;;;5014458;28;20033;-76
2021/10/06 03:23:07;;;;;;;19.67;9.07;;;;;;;;;;5031842;28;20108;-75
2021/10/06 03:25:33;;;;;;;17.45;9.10;;;;;;;;;;5032630;28;20037;-76
2021/10/06 03:27:59;;;;;;;20.80;9.95;;;;;;;;;;5030957;28;20385;-75
2021/10/06 03:30:24;;;;;;;15.98;8.70;;;;;;;;;;5031235;28;20061;-75
2021/10/06 03:32:50;;;;;;;18.95;9.52;;;;;;;;;;5032239;28;20067;-76
2021/10/06 03:35:18;;;;;;;20.95;10.20;;;;;;;;;;5030649;28;20061;-76
2021/10/06 03:37:45;;;;;;;17.40;8.38;;;;;;;;;;5030719;28;20029;-75
2021/10/06 03:40:11;;;;;;;13.73;8.18;;;;;;;;;;5030152;28;20036;-74
2021/10/06 03:42:36;;;;;;;22.70;11.30;;;;;;;;;;5032019;28;20030;-73
2021/10/06 03:45:04;;;;;;;21.60;9.88;;;;;;;;;;5030586;28;20393;-73
2021/10/06 03:47:29;;;;;;;28.55;13.98;;;;;;;;;;5031982;28;20486;-74
2021/10/06 03:49:54;;;;;;;16.88;9.68;;;;;;;;;;5032217;28;20048;-74
2021/10/06 03:52:20;;;;;;;21.00;9.82;;;;;;;;;;5031967;28;20029;-73
2021/10/06 03:54:46;;;;;;;20.50;11.23;;;;;;;;;;5030882;28;20052;-72
2021/10/06 03:57:11;;;;;;;21.15;11.50;;;;;;;;;;5030490;28;20040;-72
2021/10/06 03:59:36;;;;;;;20.95;12.32;;;;;;;;;;5032074;28;20037;-74
2021/10/06 04:02:02;;;;;;;26.92;11.73;;;;;;;;;;5030633;28;20036;-73
2021/10/06 04:04:28;;;;;;;22.85;11.15;;;;;;;;;;5031951;28;20474;-71
2021/10/06 04:06:53;;;;;;;22.92;11.55;;;;;;;;;;5030489;28;20168;-74
2021/10/06 04:09:19;;;;;;;20.23;11.48;;;;;;;;;;5031479;28;20033;-74
2021/10/06 04:11:44;;;;;;;24.02;11.73;;;;;;;;;;5030193;28;20018;-72
2021/10/06 04:14:10;;;;;;;25.85;12.48;;;;;;;;;;5031330;28;20045;-73
2021/10/06 04:16:35;;;;;;;19.77;10.35;;;;;;;;;;5031691;28;20037;-73
2021/10/06 04:19:02;;;;;;;21.73;10.45;;;;;;;;;;5031368;28;20432;-73
2021/10/06 04:21:28;;;;;;;13.60;7.55;;;;;;;;;;5030269;28;20045;-73
2021/10/06 04:23:53;;;;;;;15.50;9.05;;;;;;;;;;5030340;28;20029;-72
2021/10/06 04:26:19;;;;;;;18.90;9.27;;;;;;;;;;5026634;28;20405;-72
2021/10/06 04:28:45;;;;;;;17.73;8.80;;;;;;;;;;5015768;28;20460;-72
2021/10/06 04:31:10;;;;;;;14.52;8.38;;;;;;;;;;5019779;28;20057;-72
2021/10/06 04:33:36;;;;;;;14.27;7.88;;;;;;;;;;5019221;28;20018;-71
2021/10/06 04:36:01;;;;;;;14.35;8.00;;;;;;;;;;5026404;28;20129;-73
2021/10/06 04:38:28;;;;;;;13.60;7.00;;;;;;;;;;5030958;28;20026;-72
2021/10/06 04:40:54;;;;;;;11.90;6.13;;;;;;;;;;5028768;28;20065;-72
2021/10/06 04:43:19;;;;;;;15.20;7.15;;;;;;;;;;5020220;28;20041;-73
2021/10/06 04:45:45;;;;;;;15.23;7.88;;;;;;;;;;5020737;28;20033;-72
2021/10/06 04:48:11;;;;;;;13.65;8.95;;;;;;;;;;5024878;28;20592;-73
2021/10/06 04:50:36;;;;;;;14.80;7.90;;;;;;;;;;5013248;28;20032;-73
2021/10/06 04:53:04;;;;;;;14.18;9.30;;;;;;;;;;5026819;28;20018;-72
2021/10/06 04:55:30;;;;;;;18.13;8.10;;;;;;;;;;5029307;28;20045;-76
2021/10/06 04:57:57;;;;;;;13.05;7.60;;;;;;;;;;5017916;28;20018;-76
2021/10/06 05:00:24;;;;;;;13.73;7.82;;;;;;;;;;5015508;28;20033;-75
2021/10/06 05:02:50;;;;;;;17.38;7.60;;;;;;;;;;5026539;28;20034;-76
2021/10/06 05:05:16;;;;;;;12.43;6.25;;;;;;;;;;5022144;28;20350;-77
2021/10/06 05:07:42;;;;;;;16.90;7.35;;;;;;;;;;5028621;28;20036;-75
2021/10/06 05:10:08;;;;;;;17.05;7.82;;;;;;;;;;5018615;28;20025;-77
2021/10/06 05:12:33;;;;;;;16.88;11.10;;;;;;;;;;5026983;28;20026;-75
2021/10/06 05:14:59;;;;;;;13.52;6.88;;;;;;;;;;5028465;28;20116;-74
2021/10/06 05:17:24;;;;;;;16.05;7.32;;;;;;;;;;5022346;28;20034;-76
2021/10/06 05:19:50;;;;;;;17.55;7.18;;;;;;;;;;5028478;28;20033;-76
2021/10/06 05:22:15;;;;;;;14.40;7.10;;;;;;;;;;5028556;28;20041;-76
2021/10/06 05:24:41;;;;;;;13.45;8.55;;;;;;;;;;5018777;28;20026;-76
2021/10/06 05:27:06;;;;;;;11.60;7.45;;;;;;;;;;5023660;28;20101;-76
2021/10/06 05:29:32;;;;;;;12.43;7.68;;;;;;;;;;5013195;28;20026;-76
2021/10/06 05:32:03;;;;;;;13.32;7.65;;;;;;;;;;5014278;28;20076;-76
2021/10/06 05:34:29;;;;;;;14.15;7.63;;;;;;;;;;5011649;28;20360;-75
2021/10/06 05:36:57;;;;;;;9.65;6.28;;;;;;;;;;5025068;28;20077;-77
2021/10/06 05:39:23;;;;;;;13.13;6.60;;;;;;;;;;5024842;28;20029;-77
2021/10/06 05:41:49;;;;;;;11.55;6.43;;;;;;;;;;5028094;28;20120;-76
2021/10/06 05:44:14;;;;;;;12.40;6.68;;;;;;;;;;5020898;28;20159;-74
2021/10/06 05:46:40;;;;;;;10.70;6.22;;;;;;;;;;5022234;28;20454;-75
2021/10/06 05:49:05;;;;;;;9.65;5.43;;;;;;;;;;5011887;28;20044;-74
2021/10/06 05:51:31;;;;;;;12.93;5.85;;;;;;;;;;5025263;28;20040;-76
2021/10/06 05:53:56;;;;;;;12.30;5.00;;;;;;;;;;5022963;28;20037;-76
2021/10/06 05:56:22;;;;;;;12.82;7.30;;;;;;;;;;5017333;28;20052;-76
2021/10/06 05:58:47;;;;;;;9.30;6.00;;;;;;;;;;5019562;28;20107;-77
2021/10/06 06:01:13;;;;;;;10.07;4.20;;;;;;;;;;5019013;28;20076;-76
2021/10/06 06:03:40;;;;;;;9.57;4.30;;;;;;;;;;5013165;28;20057;-76
2021/10/06 06:06:05;;;;;;;7.38;4.60;;;;;;;;;;5021801;28;20470;-75
2021/10/06 06:08:31;;;;;;;9.00;4.15;;;;;;;;;;5010299;28;20034;-77
2021/10/06 06:10:57;;;;;;;6.88;3.33;;;;;;;;;;5018240;28;20095;-77
2021/10/06 06:13:22;;;;;;;6.18;3.50;;;;;;;;;;5013342;28;20473;-77
2021/10/06 06:15:52;;;;;;;8.43;3.75;;;;;;;;;;5018634;28;20104;-76
2021/10/06 06:18:18;;;;;;;5.90;3.28;;;;;;;;;;5009892;28;20045;-78
2021/10/06 06:20:43;;;;;;;8.20;3.88;;;;;;;;;;5015673;28;20473;-76
2021/10/06 06:23:08;;;;;;;3.97;3.03;;;;;;;;;;5024945;28;20333;-77
2021/10/06 06:25:34;;;;;;;9.15;2.95;;;;;;;;;;5009242;28;20029;-75
2021/10/06 06:27:59;;;;;;;6.38;2.75;;;;;;;;;;5007791;28;20449;-74
2021/10/06 06:30:25;;;;;;;8.05;2.92;;;;;;;;;;5016404;28;20088;-77
2021/10/06 06:32:51;;;;;;;5.82;2.65;;;;;;;;;;5009280;28;20037;-76
2021/10/06 06:35:18;;;;;;;10.10;3.00;;;;;;;;;;5018506;28;20062;-76
2021/10/06 06:37:46;;;;;;;4.25;2.50;;;;;;;;;;5000482;28;20097;-75
2021/10/06 06:40:12;;;;;;;11.45;2.63;;;;;;;;;;5011732;28;20104;-74
2021/10/06 06:42:38;;;;;;;5.38;2.65;;;;;;;;;;5007347;28;20080;-76
2021/10/06 06:45:05;;;;;;;6.10;2.75;;;;;;;;;;5016267;28;20592;-76
2021/10/06 06:47:31;;;;;;;3.65;2.40;;;;;;;;;;5021970;28;20037;-76
2021/10/06 06:49:58;;;;;;;5.82;3.08;;;;;;;;;;5028831;28;20037;-77
2021/10/06 06:52:24;;;;;;;6.40;2.97;;;;;;;;;;5027637;28;20080;-76
2021/10/06 06:54:50;;;;;;;6.47;3.60;;;;;;;;;;5023483;28;20029;-77
2021/10/06 06:57:15;;;;;;;5.97;2.40;;;;;;;;;;5022834;28;20037;-75
2021/10/06 06:59:41;;;;;;;5.20;2.80;;;;;;;;;;5023158;28;20037;-74
2021/10/06 07:02:08;;;;;;;4.45;2.60;;;;;;;;;;5017200;28;20064;-74
2021/10/06 07:04:33;;;;;;;7.72;3.92;;;;;;;;;;5018285;28;20114;-77
2021/10/06 07:06:59;;;;;;;6.75;2.58;;;;;;;;;;5016578;28;20116;-76
2021/10/06 07:09:25;;;;;;;6.40;2.70;;;;;;;;;;5020077;28;20108;-76
2021/10/06 07:11:54;;;;;;;5.32;2.65;;;;;;;;;;5013802;28;20136;-76
2021/10/06 07:14:20;;;;;;;8.95;2.80;;;;;;;;;;5023095;28;20076;-77
2021/10/06 07:16:46;;;;;;;2.65;1.90;;;;;;;;;;5018729;28;20037;-77
2021/10/06 07:19:15;;;;;;;5.97;3.38;;;;;;;;;;5020345;28;20038;-74
2021/10/06 07:21:44;;;;;;;6.68;2.25;;;;;;;;;;5018101;28;20038;-77
2021/10/06 07:24:15;;;;;;;5.25;2.10;;;;;;;;;;5025118;28;20033;-77
2021/10/06 07:26:43;;;;;;;5.68;2.03;;;;;;;;;;5024534;28;20422;-75
2021/10/06 07:29:09;;;;;;;9.50;1.88;;;;;;;;;;5030453;28;20036;-76
2021/10/06 07:31:35;;;;;;;6.05;2.05;;;;;;;;;;5025887;28;20025;-73
2021/10/06 07:34:02;;;;;;;7.03;1.92;;;;;;;;;;5028716;28;20481;-76
2021/10/06 07:36:28;;;;;;;4.68;2.17;;;;;;;;;;5025551;28;20049;-75
2021/10/06 07:38:55;;;;;;;6.25;2.15;;;;;;;;;;5022704;28;20087;-75
2021/10/06 07:41:21;;;;;;;3.65;1.83;;;;;;;;;;5031870;28;20037;-74
2021/10/06 07:43:48;;;;;;;6.95;3.45;;;;;;;;;;5022383;28;20393;-76
2021/10/06 07:46:13;;;;;;;5.20;2.30;;;;;;;;;;5014775;28;20606;-76
2021/10/06 07:48:40;;;;;;;3.80;1.70;;;;;;;;;;5024480;28;20048;-74
2021/10/06 07:51:05;;;;;;;5.30;2.20;;;;;;;;;;5019455;28;20042;-77
2021/10/06 07:53:31;;;;;;;3.88;1.80;;;;;;;;;;5013794;28;20425;-77
2021/10/06 07:55:56;;;;;;;5.75;2.30;;;;;;;;;;5019064;28;20034;-74
2021/10/06 07:58:22;;;;;;;4.15;2.13;;;;;;;;;;5024203;28;20037;-77
2021/10/06 08:00:48;;;;;;;4.43;1.95;;;;;;;;;;5026185;28;20132;-75
2021/10/06 08:03:14;;;;;;;3.70;2.53;;;;;;;;;;5021359;28;20059;-74
2021/10/06 08:05:40;;;;;;;6.07;3.08;;;;;;;;;;5021667;28;20032;-76
2021/10/06 08:08:07;;;;;;;13.45;2.80;;;;;;;;;;5022134;28;20057;-76
2021/10/06 08:10:33;;;;;;;9.05;1.95;;;;;;;;;;5026596;28;20060;-75
2021/10/06 08:13:03;;;;;;;5.85;1.98;;;;;;;;;;5020597;28;20025;-75
2021/10/06 08:15:29;;;;;;;17.70;9.20;;;;;;;;;;5019062;28;20068;-74
2021/10/06 08:17:56;;;;;;;3.55;2.25;;;;;;;;;;5019463;28;20041;-76
2021/10/06 08:20:22;;;;;;;3.97;1.98;;;;;;;;;;5026585;28;20653;-74
2021/10/06 08:22:47;;;;;;;2.65;1.85;;;;;;;;;;5022229;28;20053;-75
2021/10/06 08:25:14;;;;;;;5.28;2.25;;;;;;;;;;5024739;28;20111;-74
2021/10/06 08:27:40;;;;;;;5.05;2.60;;;;;;;;;;5023707;28;20355;-75
2021/10/06 08:30:09;;;;;;;9.88;2.08;;;;;;;;;;5019139;28;20025;-75
2021/10/06 08:32:37;;;;;;;7.78;3.47;;;;;;;;;;5025561;28;20021;-75
2021/10/06 08:35:03;;;;;;;10.57;2.42;;;;;;;;;;5013763;28;20140;-74
2021/10/06 08:37:29;;;;;;;6.53;2.20;;;;;;;;;;5028788;28;20030;-75
2021/10/06 08:39:56;;;;;;;12.70;2.53;;;;;;;;;;5020229;28;20057;-75
2021/10/06 08:42:22;;;;;;;2.63;1.92;;;;;;;;;;5019086;28;20072;-74
2021/10/06 08:44:50;;;;;;;4.65;3.13;;;;;;;;;;5023882;28;20033;-78
2021/10/06 08:47:17;;;;;;;4.35;2.22;;;;;;;;;;5009353;28;20039;-77
2021/10/06 08:49:44;;;;;;;17.58;5.35;;;;;;;;;;5017798;28;20029;-78
2021/10/06 08:52:10;;;;;;;3.85;2.15;;;;;;;;;;5025962;28;20018;-74
2021/10/06 08:54:36;;;;;;;3.28;1.88;;;;;;;;;;5020169;28;20147;-76
2021/10/06 08:57:16;;;;;;;8.95;2.00;;;;;;;;;;5019451;28;20026;-76
2021/10/06 08:59:43;;;;;;;10.02;2.38;;;;;;;;;;5012958;28;20049;-75
2021/10/06 09:02:13;;;;;;;11.18;3.03;;;;;;;;;;5011741;28;20040;-75
2021/10/06 09:04:39;;;;;;;9.00;2.35;;;;;;;;;;5024330;28;20034;-74
2021/10/06 09:07:09;;;;;;;6.30;1.70;;;;;;;;;;5022727;28;20585;-78
2021/10/06 09:09:36;;;;;;;8.40;2.47;;;;;;;;;;5026523;28;20052;-76
2021/10/06 09:12:12;;;;;;;4.65;1.92;;;;;;;;;;5025133;28;20029;-77
2021/10/06 09:14:47;;;;;;;10.13;2.28;;;;;;;;;;5023077;28;20091;-77
2021/10/06 09:17:20;;;;;;;5.72;2.10;;;;;;;;;;5025064;28;20543;-80
2021/10/06 09:19:57;;;;;;;6.78;1.80;;;;;;;;;;5001280;28;20148;-76
2021/10/06 09:22:30;;;;;;;15.30;2.15;;;;;;;;;;5017172;28;20384;-77
2021/10/06 09:25:03;;;;;;;3.22;1.85;;;;;;;;;;5024917;28;20029;-76
2021/10/06 09:27:35;;;;;;;7.93;2.22;;;;;;;;;;5006420;28;20029;-75
2021/10/06 09:30:07;;;;;;;4.25;1.60;;;;;;;;;;5017845;28;20414;-76
2021/10/06 09:32:41;;;;;;;3.85;1.80;;;;;;;;;;5020925;28;20045;-78
2021/10/06 09:35:19;;;;;;;7.03;1.70;;;;;;;;;;5017446;28;20038;-78
2021/10/06 09:37:47;;;;;;;4.88;1.90;;;;;;;;;;5023098;28;20240;-77
2021/10/06 09:40:16;;;;;;;10.48;2.00;;;;;;;;;;5021545;28;20029;-77
2021/10/06 09:42:54;;;;;;;5.57;2.28;;;;;;;;;;5019969;28;20078;-78
2021/10/06 09:45:22;;;;;;;4.80;1.70;;;;;;;;;;5022802;28;20033;-76
2021/10/06 09:48:10;;;;;;;3.95;1.50;;;;;;;;;;5025416;28;20461;-78
2021/10/06 09:50:42;;;;;;;5.28;1.50;;;;;;;;;;5019378;28;20487;-76
2021/10/06 09:53:15;;;;;;;6.38;1.80;;;;;;;;;;5024950;28;20029;-76
2021/10/06 09:55:44;;;;;;;5.32;2.22;;;;;;;;;;5022501;28;20133;-75
2021/10/06 09:58:16;;;;;;;6.80;2.00;;;;;;;;;;5021078;28;20048;-77
2021/10/06 10:00:42;;;;;;;;;;;;;;;;;;5016438;28;20419;-77
2021/10/06 10:03:08;;;;;;;3.55;2.00;;;;;;;;;;5030505;28;19967;-78
2021/10/06 10:05:40;;;;;;;8.68;2.25;;;;;;;;;;5032408;28;20033;-78
2021/10/06 10:08:10;;;;;;;5.85;1.92;;;;;;;;;;5027277;28;20056;-76
2021/10/06 10:10:38;;;;;;;9.38;2.25;;;;;;;;;;5007367;28;20057;-75
2021/10/06 10:13:04;;;;;;;2.28;1.48;;;;;;;;;;5030510;28;20538;-77
2021/10/06 10:15:32;;;;;;;7.40;2.50;;;;;;;;;;5026900;28;20346;-76
2021/10/06 10:18:06;;;;;;;5.25;1.80;;;;;;;;;;5027234;28;20034;-77
2021/10/06 10:20:38;;;;;;;7.15;1.90;;;;;;;;;;5028152;28;20026;-77
2021/10/06 10:23:04;;;;;;;9.45;1.88;;;;;;;;;;5032326;28;20041;-77
2021/10/06 10:25:38;;;;;;;6.10;2.35;;;;;;;;;;5030087;28;20021;-77
2021/10/06 10:28:08;;;;;;;8.93;2.08;;;;;;;;;;5026464;28;20065;-76
2021/10/06 10:30:37;;;;;;;12.75;1.98;;;;;;;;;;5017906;28;20053;-79
2021/10/06 10:33:07;;;;;;;7.72;3.40;;;;;;;;;;5014573;28;20033;-77
2021/10/06 10:35:44;;;;;;;6.18;1.80;;;;;;;;;;5023724;28;20118;-79
2021/10/06 10:38:33;;;;;;;14.40;2.83;;;;;;;;;;5025621;28;20042;-76
2021/10/06 10:41:01;;;;;;;4.45;3.10;;;;;;;;;;5027118;28;20404;-76
2021/10/06 10:43:31;;;;;;;4.07;1.27;;;;;;;;;;5023520;28;20034;-77
2021/10/06 10:46:10;;;;;;;4.05;2.20;;;;;;;;;;5025226;28;20052;-77
2021/10/06 10:49:03;;;;;;;5.60;1.88;;;;;;;;;;5022755;28;20022;-77
2021/10/06 10:51:43;;;;;;;4.82;1.70;;;;;;;;;;5016333;28;20457;-78
2021/10/06 10:54:10;;;;;;;10.02;3.53;;;;;;;;;;5040477;28;20565;-75
2021/10/06 10:56:42;;;;;;;8.40;2.83;;;;;;;;;;5021502;28;20658;-78
2021/10/06 10:59:13;;;;;;;3.75;2.08;;;;;;;;;;5022877;28;20037;-77
2021/10/06 11:01:41;;;;;;;3.70;2.13;;;;;;;;;;5014634;28;20029;-76
2021/10/06 11:04:12;;;;;;;4.78;1.67;;;;;;;;;;5027719;28;20025;-79
2021/10/06 11:06:44;;;;;;;12.07;2.95;;;;;;;;;;5022201;28;20052;-79
2021/10/06 11:09:31;;;;;;;11.48;2.25;;;;;;;;;;5024109;28;20028;-77
2021/10/06 11:12:12;;;;;;;5.03;1.98;;;;;;;;;;5027691;28;20037;-78
2021/10/06 11:14:40;;;;;;;4.65;2.40;;;;;;;;;;5027036;28;20033;-77
2021/10/06 11:17:24;;;;;;;3.42;1.67;;;;;;;;;;5012654;28;20037;-78
2021/10/06 11:19:55;;;;;;;7.05;1.98;;;;;;;;;;5023418;28;20526;-78
2021/10/06 11:22:29;;;;;;;5.20;1.90;;;;;;;;;;5023974;28;20040;-77
2021/10/06 11:25:06;;;;;;;8.98;2.28;;;;;;;;;;5027920;28;20026;-76
2021/10/06 11:27:49;;;;;;;17.25;3.28;;;;;;;;;;5021016;28;20025;-79
2021/10/06 11:30:17;;;;;;;7.13;1.98;;;;;;;;;;5028007;28;20033;-79
2021/10/06 11:32:50;;;;;;;10.13;1.90;;;;;;;;;;5025882;28;20040;-78
2021/10/06 11:35:16;;;;;;;18.55;5.90;;;;;;;;;;5017796;28;20050;-75
2021/10/06 11:37:42;;;;;;;6.45;1.73;;;;;;;;;;5022905;28;20030;-77
2021/10/06 11:40:14;;;;;;;2.80;1.50;;;;;;;;;;5021920;28;20037;-77
2021/10/06 11:42:40;;;;;;;5.53;1.75;;;;;;;;;;5021112;28;20029;-77
2021/10/06 11:45:15;;;;;;;4.88;1.88;;;;;;;;;;5028921;28;20044;-78
2021/10/06 11:47:40;;;;;;;7.80;2.05;;;;;;;;;;5026307;28;20227;-77
2021/10/06 11:50:07;;;;;;;3.65;2.38;;;;;;;;;;5027526;28;20017;-75
2021/10/06 11:52:33;;;;;;;13.93;3.45;;;;;;;;;;5029382;28;20017;-78
2021/10/06 11:54:59;;;;;;;7.10;1.80;;;;;;;;;;5028085;28;20144;-78
2021/10/06 11:57:25;;;;;;;4.53;2.25;;;;;;;;;;5026823;28;20025;-78
2021/10/06 11:59:52;;;;;;;3.75;2.03;;;;;;;;;;5025719;28;20142;-76
2021/10/06 12:02:20;;;;;;;15.90;2.00;;;;;;;;;;5026685;28;20481;-78
2021/10/06 12:04:56;;;;;;;7.82;2.67;;;;;;;;;;5020640;28;20057;-77
2021/10/06 12:07:24;;;;;;;4.30;1.65;;;;;;;;;;5028556;28;20037;-76
2021/10/06 12:09:53;;;;;;;4.43;1.80;;;;;;;;;;5021605;28;20143;-75
2021/10/06 12:12:30;;;;;;;5.18;1.85;;;;;;;;;;5025265;28;20030;-77
2021/10/06 12:15:04;;;;;;;17.02;2.78;;;;;;;;;;5025091;28;20112;-76
2021/10/06 12:17:34;;;;;;;6.10;2.30;;;;;;;;;;5024455;28;20032;-77
2021/10/06 12:20:01;;;;;;;6.88;2.08;;;;;;;;;;5017077;28;20106;-78
2021/10/06 12:22:37;;;;;;;11.68;2.92;;;;;;;;;;5024763;28;20051;-76
2021/10/06 12:25:10;;;;;;;8.77;2.60;;;;;;;;;;5013714;28;20116;-76
2021/10/06 12:27:41;;;;;;;14.32;4.68;;;;;;;;;;5016476;28;20025;-78
2021/10/06 12:30:26;;;;;;;4.82;1.98;;;;;;;;;;5022201;28;20021;-76
2021/10/06 12:33:06;;;;;;;10.48;2.75;;;;;;;;;;5016494;28;20402;-76
2021/10/06 12:35:49;;;;;;;6.05;2.50;;;;;;;;;;5004321;28;20733;-77
2021/10/06 12:38:16;;;;;;;7.45;3.20;;;;;;;;;;5028839;28;20021;-75
2021/10/06 12:40:48;;;;;;;10.15;2.20;;;;;;;;;;5030070;28;20034;-78
2021/10/06 12:43:26;;;;;;;7.05;2.17;;;;;;;;;;5025649;28;20029;-77
2021/10/06 12:46:05;;;;;;;6.45;3.17;;;;;;;;;;5029901;28;20036;-76
2021/10/06 12:48:50;;;;;;;12.88;4.78;;;;;;;;;;5024025;28;20106;-76
2021/10/06 12:51:18;;;;;;;9.60;2.72;;;;;;;;;;5022699;28;20030;-78
2021/10/06 12:53:57;;;;;;;7.22;2.70;;;;;;;;;;5021057;28;20087;-75
2021/10/06 12:56:28;;;;;;;7.97;3.25;;;;;;;;;;5028600;28;20021;-78
2021/10/06 12:58:58;;;;;;;10.25;3.10;;;;;;;;;;5025805;28;20033;-78
2021/10/06 13:01:23;;;;;;;6.72;2.67;;;;;;;;;;5021583;28;20052;-78
2021/10/06 13:03:49;;;;;;;8.73;2.70;;;;;;;;;;5021818;28;20117;-77
2021/10/06 13:06:14;;;;;;;5.50;2.40;;;;;;;;;;5026901;28;20117;-76
2021/10/06 13:08:50;;;;;;;6.40;2.97;;;;;;;;;;5025597;28;20109;-78
2021/10/06 13:11:16;;;;;;;8.13;2.80;;;;;;;;;;5016719;28;20025;-77
2021/10/06 13:13:42;;;;;;;7.93;3.00;;;;;;;;;;5024331;28;20665;-77
2021/10/06 13:16:08;;;;;;;5.85;2.35;;;;;;;;;;5023050;28;20128;-77
2021/10/06 13:18:33;;;;;;;7.43;2.60;;;;;;;;;;5016008;28;20033;-76
2021/10/06 13:20:59;;;;;;;8.07;2.97;;;;;;;;;;5025722;28;20037;-77
2021/10/06 13:23:25;;;;;;;11.45;3.75;;;;;;;;;;5022357;28;20032;-78
2021/10/06 13:25:51;;;;;;;6.53;3.63;;;;;;;;;;5018467;28;20033;-78
2021/10/06 13:28:16;;;;;;;12.50;4.28;;;;;;;;;;5017085;28;20108;-77
2021/10/06 13:30:45;;;;;;;8.13;2.97;;;;;;;;;;5018833;28;20481;-78
2021/10/06 13:33:13;;;;;;;10.43;4.35;;;;;;;;;;5020825;28;20025;-77
2021/10/06 13:35:40;;;;;;;11.23;2.95;;;;;;;;;;5028788;28;20049;-77
2021/10/06 13:38:07;;;;;;;8.07;2.60;;;;;;;;;;5020477;28;20029;-76
2021/10/06 13:40:34;;;;;;;5.40;2.80;;;;;;;;;;5027254;28;20029;-78
2021/10/06 13:43:02;;;;;;;8.73;3.20;;;;;;;;;;5020088;28;20742;-78
2021/10/06 13:45:28;;;;;;;10.73;4.20;;;;;;;;;;5027717;28;20037;-77
2021/10/06 13:47:54;;;;;;;12.07;4.47;;;;;;;;;;5021855;28;20037;-78
2021/10/06 13:50:22;;;;;;;9.32;3.53;;;;;;;;;;5028212;28;20043;-78
2021/10/06 13:52:47;;;;;;;9.13;2.55;;;;;;;;;;5020785;28;20037;-77
2021/10/06 13:55:14;;;;;;;4.72;2.20;;;;;;;;;;5025084;28;20029;-77
2021/10/06 13:57:40;;;;;;;8.88;2.60;;;;;;;;;;5027132;28;20025;-78
2021/10/06 14:00:08;;;;;;;12.52;3.03;;;;;;;;;;5024827;28;20473;-77
2021/10/06 14:02:34;;;;;;;10.35;3.22;;;;;;;;;;5022138;28;20060;-77
2021/10/06 14:05:01;;;;;;;12.40;2.78;;;;;;;;;;5026714;28;20021;-77
2021/10/06 14:07:27;;;;;;;10.20;2.85;;;;;;;;;;5012347;28;20144;-78
2021/10/06 14:09:53;;;;;;;12.30;4.32;;;;;;;;;;5018599;28;20105;-77
2021/10/06 14:12:20;;;;;;;6.45;2.67;;;;;;;;;;5017247;28;20033;-76
2021/10/06 14:14:47;;;;;;;9.05;2.28;;;;;;;;;;5005306;28;20034;-77
2021/10/06 14:17:13;;;;;;;10.77;2.83;;;;;;;;;;5014670;28;20029;-78
2021/10/06 14:19:45;;;;;;;12.45;3.65;;;;;;;;;;5026413;28;20033;-77
2021/10/06 14:22:11;;;;;;;8.35;2.65;;;;;;;;;;5031494;28;20474;-76
2021/10/06 14:24:40;;;;;;;12.52;5.53;;;;;;;;;;5035380;28;20052;-77
2021/10/06 14:27:07;;;;;;;12.70;4.97;;;;;;;;;;5025950;28;20032;-76
2021/10/06 14:29:32;;;;;;;13.73;2.50;;;;;;;;;;5018501;28;20033;-78
2021/10/06 14:31:58;;;;;;;11.68;2.63;;;;;;;;;;5018852;28;20092;-77
2021/10/06 14:34:23;;;;;;;9.45;2.45;;;;;;;;;;5032864;28;20462;-75
2021/10/06 14:36:49;;;;;;;9.60;3.67;;;;;;;;;;5029384;28;20265;-77